sensor_id;sensor_type;location;lat;lon;timestamp;P1;durP1;ratioP1;P2;durP2;ratioP2
60492;SDS011;46341;51.290;-2.474;2023-01-31T00:02:17;15.48;;;4.15;;
60492;SDS011;46341;51.290;-2.474;2023-01-31T00:04:43;13.50;;;3.90;;
60492;SDS011;46341;51.290;-2.474;2023-01-31T00:07:10;12.45;;;4.45;;
60492;SDS011;46341;51.290;-2.474;2023-01-31T00:09:36;13.25;;;4.13;;
60492;SDS011;46341;51.290;-2.474;2023-01-31T00:12:02;13.77;;;4.38;;
60492;SDS011;46341;51.290;-2.474;2023-01-31T00:14:29;11.00;;;4.00;;
60492;SDS011;46341;51.290;-2.474;2023-01-31T00:16:55;16.52;;;5.32;;
60492;SDS011;46341;51.290;-2.474;2023-01-31T00:19:21;12.68;;;4.40;;
60492;SDS011;46341;51.290;-2.474;2023-01-31T00:21:48;12.95;;;4.00;;
60492;SDS011;46341;51.290;-2.474;2023-01-31T00:24:14;10.73;;;4.25;;
60492;SDS011;46341;51.290;-2.474;2023-01-31T00:26:41;17.10;;;3.80;;
60492;SDS011;46341;51.290;-2.474;2023-01-31T00:29:07;11.70;;;3.38;;
60492;SDS011;46341;51.290;-2.474;2023-01-31T00:31:34;14.25;;;3.75;;
60492;SDS011;46341;51.290;-2.474;2023-01-31T00:34:01;11.60;;;3.07;;
60492;SDS011;46341;51.290;-2.474;2023-01-31T00:36:29;8.80;;;2.50;;
60492;SDS011;46341;51.290;-2.474;2023-01-31T00:41:23;13.38;;;4.28;;
60492;SDS011;46341;51.290;-2.474;2023-01-31T00:43:50;10.13;;;3.65;;
60492;SDS011;46341;51.290;-2.474;2023-01-31T00:46:16;23.08;;;8.45;;
60492;SDS011;46341;51.290;-2.474;2023-01-31T00:48:45;14.13;;;3.85;;
60492;SDS011;46341;51.290;-2.474;2023-01-31T00:51:11;14.02;;;3.47;;
60492;SDS011;46341;51.290;-2.474;2023-01-31T00:53:38;12.43;;;3.17;;
60492;SDS011;46341;51.290;-2.474;2023-01-31T00:56:05;10.52;;;3.25;;
60492;SDS011;46341;51.290;-2.474;2023-01-31T00:58:33;11.30;;;3.22;;
60492;SDS011;46341;51.290;-2.474;2023-01-31T01:03:39;19.10;;;6.20;;
60492;SDS011;46341;51.290;-2.474;2023-01-31T01:06:06;13.32;;;4.70;;
60492;SDS011;46341;51.290;-2.474;2023-01-31T01:08:32;15.32;;;5.50;;
60492;SDS011;46341;51.290;-2.474;2023-01-31T01:11:07;13.60;;;4.03;;
60492;SDS011;46341;51.290;-2.474;2023-01-31T01:13:34;12.57;;;3.47;;
60492;SDS011;46341;51.290;-2.474;2023-01-31T01:16:11;17.25;;;5.65;;
60492;SDS011;46341;51.290;-2.474;2023-01-31T01:18:38;9.65;;;3.10;;
60492;SDS011;46341;51.290;-2.474;2023-01-31T01:21:08;13.63;;;3.72;;
60492;SDS011;46341;51.290;-2.474;2023-01-31T01:23:35;11.00;;;3.20;;
60492;SDS011;46341;51.290;-2.474;2023-01-31T01:26:02;12.27;;;3.73;;
60492;SDS011;46341;51.290;-2.474;2023-01-31T01:28:28;16.42;;;3.50;;
60492;SDS011;46341;51.290;-2.474;2023-01-31T01:30:57;12.18;;;3.28;;
60492;SDS011;46341;51.290;-2.474;2023-01-31T01:33:24;13.32;;;3.58;;
60492;SDS011;46341;51.290;-2.474;2023-01-31T01:35:50;13.95;;;3.33;;
60492;SDS011;46341;51.290;-2.474;2023-01-31T01:38:16;11.70;;;3.80;;
60492;SDS011;46341;51.290;-2.474;2023-01-31T01:40:43;10.25;;;3.20;;
60492;SDS011;46341;51.290;-2.474;2023-01-31T01:43:10;15.88;;;3.95;;
60492;SDS011;46341;51.290;-2.474;2023-01-31T01:45:36;12.35;;;3.03;;
60492;SDS011;46341;51.290;-2.474;2023-01-31T01:48:04;12.43;;;3.65;;
60492;SDS011;46341;51.290;-2.474;2023-01-31T01:50:33;15.73;;;3.45;;
60492;SDS011;46341;51.290;-2.474;2023-01-31T01:55:38;11.45;;;3.42;;
60492;SDS011;46341;51.290;-2.474;2023-01-31T01:58:08;11.27;;;3.25;;
60492;SDS011;46341;51.290;-2.474;2023-01-31T02:00:36;12.02;;;3.92;;
60492;SDS011;46341;51.290;-2.474;2023-01-31T02:03:03;15.30;;;3.85;;
60492;SDS011;46341;51.290;-2.474;2023-01-31T02:07:57;13.57;;;4.28;;
60492;SDS011;46341;51.290;-2.474;2023-01-31T02:10:29;13.68;;;4.53;;
60492;SDS011;46341;51.290;-2.474;2023-01-31T02:12:56;16.25;;;5.32;;
60492;SDS011;46341;51.290;-2.474;2023-01-31T02:15:23;10.55;;;3.38;;
60492;SDS011;46341;51.290;-2.474;2023-01-31T02:17:50;9.02;;;3.42;;
60492;SDS011;46341;51.290;-2.474;2023-01-31T02:25:40;10.90;;;3.28;;
60492;SDS011;46341;51.290;-2.474;2023-01-31T02:38:40;11.70;;;3.17;;
60492;SDS011;46341;51.290;-2.474;2023-01-31T02:46:38;13.18;;;3.15;;
60492;SDS011;46341;51.290;-2.474;2023-01-31T02:49:11;9.93;;;2.83;;
60492;SDS011;46341;51.290;-2.474;2023-01-31T02:51:42;10.07;;;2.75;;
60492;SDS011;46341;51.290;-2.474;2023-01-31T02:54:29;16.23;;;2.75;;
60492;SDS011;46341;51.290;-2.474;2023-01-31T02:57:16;11.90;;;2.75;;
60492;SDS011;46341;51.290;-2.474;2023-01-31T02:59:44;11.30;;;2.50;;
60492;SDS011;46341;51.290;-2.474;2023-01-31T03:02:11;12.93;;;3.10;;
60492;SDS011;46341;51.290;-2.474;2023-01-31T03:04:38;9.40;;;2.50;;
60492;SDS011;46341;51.290;-2.474;2023-01-31T03:07:12;12.27;;;3.53;;
60492;SDS011;46341;51.290;-2.474;2023-01-31T03:09:45;11.63;;;2.72;;
60492;SDS011;46341;51.290;-2.474;2023-01-31T03:12:30;11.35;;;2.75;;
60492;SDS011;46341;51.290;-2.474;2023-01-31T03:18:14;16.30;;;3.25;;
60492;SDS011;46341;51.290;-2.474;2023-01-31T03:20:26;14.98;;;2.97;;
60492;SDS011;46341;51.290;-2.474;2023-01-31T03:22:59;12.52;;;3.40;;
60492;SDS011;46341;51.290;-2.474;2023-01-31T03:25:27;14.25;;;2.95;;
60492;SDS011;46341;51.290;-2.474;2023-01-31T03:27:55;9.73;;;2.90;;
60492;SDS011;46341;51.290;-2.474;2023-01-31T03:32:51;13.07;;;2.70;;
60492;SDS011;46341;51.290;-2.474;2023-01-31T03:35:19;13.95;;;3.17;;
60492;SDS011;46341;51.290;-2.474;2023-01-31T03:37:58;14.45;;;3.50;;
60492;SDS011;46341;51.290;-2.474;2023-01-31T03:40:28;10.82;;;2.65;;
60492;SDS011;46341;51.290;-2.474;2023-01-31T03:45:27;16.70;;;3.10;;
60492;SDS011;46341;51.290;-2.474;2023-01-31T03:47:55;9.88;;;2.90;;
60492;SDS011;46341;51.290;-2.474;2023-01-31T03:53:12;11.55;;;2.97;;
60492;SDS011;46341;51.290;-2.474;2023-01-31T03:55:38;12.18;;;3.08;;
60492;SDS011;46341;51.290;-2.474;2023-01-31T03:58:06;13.75;;;2.97;;
60492;SDS011;46341;51.290;-2.474;2023-01-31T04:00:33;12.27;;;3.22;;
60492;SDS011;46341;51.290;-2.474;2023-01-31T04:03:14;12.52;;;3.17;;
60492;SDS011;46341;51.290;-2.474;2023-01-31T04:05:43;13.15;;;3.65;;
60492;SDS011;46341;51.290;-2.474;2023-01-31T04:08:10;13.45;;;3.28;;
60492;SDS011;46341;51.290;-2.474;2023-01-31T04:10:37;15.15;;;3.10;;
60492;SDS011;46341;51.290;-2.474;2023-01-31T04:13:03;15.88;;;2.75;;
60492;SDS011;46341;51.290;-2.474;2023-01-31T04:15:30;11.68;;;3.38;;
60492;SDS011;46341;51.290;-2.474;2023-01-31T04:17:57;14.43;;;3.10;;
60492;SDS011;46341;51.290;-2.474;2023-01-31T04:20:23;10.63;;;2.53;;
60492;SDS011;46341;51.290;-2.474;2023-01-31T04:22:50;11.98;;;3.03;;
60492;SDS011;46341;51.290;-2.474;2023-01-31T04:25:16;13.20;;;2.97;;
60492;SDS011;46341;51.290;-2.474;2023-01-31T04:27:43;12.48;;;2.97;;
60492;SDS011;46341;51.290;-2.474;2023-01-31T04:30:10;15.57;;;2.95;;
60492;SDS011;46341;51.290;-2.474;2023-01-31T04:32:37;12.18;;;3.00;;
60492;SDS011;46341;51.290;-2.474;2023-01-31T04:35:03;8.73;;;2.92;;
60492;SDS011;46341;51.290;-2.474;2023-01-31T04:37:30;10.48;;;2.80;;
60492;SDS011;46341;51.290;-2.474;2023-01-31T04:39:57;10.85;;;2.65;;
60492;SDS011;46341;51.290;-2.474;2023-01-31T04:42:23;10.85;;;2.72;;
60492;SDS011;46341;51.290;-2.474;2023-01-31T04:44:49;8.82;;;2.25;;
60492;SDS011;46341;51.290;-2.474;2023-01-31T04:47:16;10.23;;;2.40;;
60492;SDS011;46341;51.290;-2.474;2023-01-31T04:49:42;11.00;;;2.63;;
60492;SDS011;46341;51.290;-2.474;2023-01-31T04:52:09;15.13;;;2.53;;
60492;SDS011;46341;51.290;-2.474;2023-01-31T04:54:36;12.07;;;2.60;;
60492;SDS011;46341;51.290;-2.474;2023-01-31T04:57:03;11.65;;;2.70;;
60492;SDS011;46341;51.290;-2.474;2023-01-31T04:59:29;9.38;;;2.30;;
60492;SDS011;46341;51.290;-2.474;2023-01-31T05:01:55;10.15;;;2.78;;
60492;SDS011;46341;51.290;-2.474;2023-01-31T05:04:22;9.45;;;2.42;;
60492;SDS011;46341;51.290;-2.474;2023-01-31T05:06:48;11.23;;;2.35;;
60492;SDS011;46341;51.290;-2.474;2023-01-31T05:09:15;10.30;;;2.10;;
60492;SDS011;46341;51.290;-2.474;2023-01-31T05:11:43;10.38;;;2.40;;
60492;SDS011;46341;51.290;-2.474;2023-01-31T05:14:09;11.10;;;2.00;;
60492;SDS011;46341;51.290;-2.474;2023-01-31T05:16:36;9.10;;;2.58;;
60492;SDS011;46341;51.290;-2.474;2023-01-31T05:19:02;8.95;;;2.33;;
60492;SDS011;46341;51.290;-2.474;2023-01-31T05:21:29;11.15;;;2.25;;
60492;SDS011;46341;51.290;-2.474;2023-01-31T05:23:55;14.88;;;3.20;;
60492;SDS011;46341;51.290;-2.474;2023-01-31T05:26:22;6.32;;;2.25;;
60492;SDS011;46341;51.290;-2.474;2023-01-31T05:28:48;11.60;;;2.22;;
60492;SDS011;46341;51.290;-2.474;2023-01-31T05:31:15;13.45;;;2.55;;
60492;SDS011;46341;51.290;-2.474;2023-01-31T05:33:41;10.80;;;2.90;;
60492;SDS011;46341;51.290;-2.474;2023-01-31T05:36:08;9.90;;;2.42;;
60492;SDS011;46341;51.290;-2.474;2023-01-31T05:38:34;12.18;;;2.35;;
60492;SDS011;46341;51.290;-2.474;2023-01-31T05:41:01;11.80;;;2.42;;
60492;SDS011;46341;51.290;-2.474;2023-01-31T05:43:27;10.30;;;2.42;;
60492;SDS011;46341;51.290;-2.474;2023-01-31T05:45:53;8.60;;;2.03;;
60492;SDS011;46341;51.290;-2.474;2023-01-31T05:48:20;10.02;;;2.00;;
60492;SDS011;46341;51.290;-2.474;2023-01-31T05:50:47;10.55;;;2.08;;
60492;SDS011;46341;51.290;-2.474;2023-01-31T05:53:14;10.88;;;2.38;;
60492;SDS011;46341;51.290;-2.474;2023-01-31T05:55:40;10.18;;;2.25;;
60492;SDS011;46341;51.290;-2.474;2023-01-31T05:58:07;13.10;;;2.20;;
60492;SDS011;46341;51.290;-2.474;2023-01-31T06:00:33;11.43;;;2.80;;
60492;SDS011;46341;51.290;-2.474;2023-01-31T06:02:59;9.18;;;2.50;;
60492;SDS011;46341;51.290;-2.474;2023-01-31T06:05:26;10.10;;;2.10;;
60492;SDS011;46341;51.290;-2.474;2023-01-31T06:07:53;12.43;;;3.05;;
60492;SDS011;46341;51.290;-2.474;2023-01-31T06:10:19;12.98;;;3.03;;
60492;SDS011;46341;51.290;-2.474;2023-01-31T06:12:46;14.35;;;3.28;;
60492;SDS011;46341;51.290;-2.474;2023-01-31T06:15:13;13.65;;;3.10;;
60492;SDS011;46341;51.290;-2.474;2023-01-31T06:17:39;18.52;;;3.72;;
60492;SDS011;46341;51.290;-2.474;2023-01-31T06:20:05;14.90;;;3.03;;
60492;SDS011;46341;51.290;-2.474;2023-01-31T06:22:32;14.93;;;2.92;;
60492;SDS011;46341;51.290;-2.474;2023-01-31T06:24:59;15.50;;;2.83;;
60492;SDS011;46341;51.290;-2.474;2023-01-31T06:27:25;14.73;;;2.80;;
60492;SDS011;46341;51.290;-2.474;2023-01-31T06:29:52;19.95;;;3.22;;
60492;SDS011;46341;51.290;-2.474;2023-01-31T06:32:18;12.55;;;2.55;;
60492;SDS011;46341;51.290;-2.474;2023-01-31T06:34:45;13.82;;;3.22;;
60492;SDS011;46341;51.290;-2.474;2023-01-31T06:37:11;10.68;;;2.63;;
60492;SDS011;46341;51.290;-2.474;2023-01-31T06:39:37;11.98;;;2.78;;
60492;SDS011;46341;51.290;-2.474;2023-01-31T06:42:04;12.95;;;3.30;;
60492;SDS011;46341;51.290;-2.474;2023-01-31T06:44:30;17.45;;;4.47;;
60492;SDS011;46341;51.290;-2.474;2023-01-31T06:46:59;14.52;;;3.20;;
60492;SDS011;46341;51.290;-2.474;2023-01-31T06:49:25;11.55;;;3.30;;
60492;SDS011;46341;51.290;-2.474;2023-01-31T06:51:52;10.82;;;3.00;;
60492;SDS011;46341;51.290;-2.474;2023-01-31T06:54:18;16.20;;;3.20;;
60492;SDS011;46341;51.290;-2.474;2023-01-31T06:56:45;13.25;;;3.30;;
60492;SDS011;46341;51.290;-2.474;2023-01-31T06:59:11;15.35;;;2.95;;
60492;SDS011;46341;51.290;-2.474;2023-01-31T07:01:37;10.25;;;3.13;;
60492;SDS011;46341;51.290;-2.474;2023-01-31T07:04:04;12.18;;;3.08;;
60492;SDS011;46341;51.290;-2.474;2023-01-31T07:06:30;13.07;;;2.50;;
60492;SDS011;46341;51.290;-2.474;2023-01-31T07:08:57;11.97;;;2.77;;
60492;SDS011;46341;51.290;-2.474;2023-01-31T07:11:24;18.10;;;2.90;;
60492;SDS011;46341;51.290;-2.474;2023-01-31T07:13:50;12.45;;;2.67;;
60492;SDS011;46341;51.290;-2.474;2023-01-31T07:16:18;15.30;;;2.45;;
60492;SDS011;46341;51.290;-2.474;2023-01-31T07:18:44;11.55;;;2.78;;
60492;SDS011;46341;51.290;-2.474;2023-01-31T07:21:11;13.55;;;2.80;;
60492;SDS011;46341;51.290;-2.474;2023-01-31T07:23:37;13.02;;;2.65;;
60492;SDS011;46341;51.290;-2.474;2023-01-31T07:26:04;13.65;;;2.92;;
60492;SDS011;46341;51.290;-2.474;2023-01-31T07:28:31;14.70;;;3.30;;
60492;SDS011;46341;51.290;-2.474;2023-01-31T07:31:07;14.73;;;3.08;;
60492;SDS011;46341;51.290;-2.474;2023-01-31T07:33:36;9.35;;;2.63;;
60492;SDS011;46341;51.290;-2.474;2023-01-31T07:36:03;13.30;;;2.92;;
60492;SDS011;46341;51.290;-2.474;2023-01-31T07:38:30;10.87;;;2.40;;
60492;SDS011;46341;51.290;-2.474;2023-01-31T07:41:02;9.95;;;2.33;;
60492;SDS011;46341;51.290;-2.474;2023-01-31T07:43:29;10.05;;;2.22;;
60492;SDS011;46341;51.290;-2.474;2023-01-31T07:45:56;15.87;;;3.40;;
60492;SDS011;46341;51.290;-2.474;2023-01-31T07:48:23;10.15;;;2.92;;
60492;SDS011;46341;51.290;-2.474;2023-01-31T07:50:50;12.18;;;2.33;;
60492;SDS011;46341;51.290;-2.474;2023-01-31T07:53:17;9.30;;;2.25;;
60492;SDS011;46341;51.290;-2.474;2023-01-31T07:55:44;14.30;;;2.60;;
60492;SDS011;46341;51.290;-2.474;2023-01-31T07:58:14;14.90;;;2.70;;
60492;SDS011;46341;51.290;-2.474;2023-01-31T08:00:41;13.10;;;2.20;;
60492;SDS011;46341;51.290;-2.474;2023-01-31T08:03:27;12.27;;;2.80;;
60492;SDS011;46341;51.290;-2.474;2023-01-31T08:06:02;11.52;;;2.35;;
60492;SDS011;46341;51.290;-2.474;2023-01-31T08:08:29;10.70;;;2.55;;
60492;SDS011;46341;51.290;-2.474;2023-01-31T08:10:55;14.98;;;2.80;;
60492;SDS011;46341;51.290;-2.474;2023-01-31T08:13:22;12.57;;;2.67;;
60492;SDS011;46341;51.290;-2.474;2023-01-31T08:15:50;8.68;;;1.98;;
60492;SDS011;46341;51.290;-2.474;2023-01-31T08:18:16;11.65;;;2.20;;
60492;SDS011;46341;51.290;-2.474;2023-01-31T08:20:42;12.07;;;2.63;;
60492;SDS011;46341;51.290;-2.474;2023-01-31T08:23:09;11.82;;;2.40;;
60492;SDS011;46341;51.290;-2.474;2023-01-31T08:25:36;7.38;;;1.95;;
60492;SDS011;46341;51.290;-2.474;2023-01-31T08:28:02;10.50;;;2.38;;
60492;SDS011;46341;51.290;-2.474;2023-01-31T08:30:28;9.20;;;2.83;;
60492;SDS011;46341;51.290;-2.474;2023-01-31T08:32:55;9.05;;;2.53;;
60492;SDS011;46341;51.290;-2.474;2023-01-31T08:35:21;10.75;;;2.72;;
60492;SDS011;46341;51.290;-2.474;2023-01-31T08:37:48;10.98;;;2.63;;
60492;SDS011;46341;51.290;-2.474;2023-01-31T08:40:14;11.80;;;3.10;;
60492;SDS011;46341;51.290;-2.474;2023-01-31T08:42:41;9.15;;;2.63;;
60492;SDS011;46341;51.290;-2.474;2023-01-31T08:45:08;9.82;;;2.00;;
60492;SDS011;46341;51.290;-2.474;2023-01-31T08:47:34;9.73;;;2.00;;
60492;SDS011;46341;51.290;-2.474;2023-01-31T08:50:01;6.75;;;1.90;;
60492;SDS011;46341;51.290;-2.474;2023-01-31T08:52:28;6.70;;;1.80;;
60492;SDS011;46341;51.290;-2.474;2023-01-31T08:54:55;5.20;;;2.07;;
60492;SDS011;46341;51.290;-2.474;2023-01-31T08:57:21;5.05;;;1.80;;
60492;SDS011;46341;51.290;-2.474;2023-01-31T08:59:48;3.65;;;1.90;;
60492;SDS011;46341;51.290;-2.474;2023-01-31T09:02:14;5.88;;;1.88;;
60492;SDS011;46341;51.290;-2.474;2023-01-31T09:04:40;7.75;;;1.60;;
60492;SDS011;46341;51.290;-2.474;2023-01-31T09:07:07;7.15;;;1.45;;
60492;SDS011;46341;51.290;-2.474;2023-01-31T09:09:33;5.68;;;1.63;;
60492;SDS011;46341;51.290;-2.474;2023-01-31T09:12:01;5.63;;;1.55;;
60492;SDS011;46341;51.290;-2.474;2023-01-31T09:14:28;8.23;;;1.80;;
60492;SDS011;46341;51.290;-2.474;2023-01-31T09:16:56;11.60;;;3.95;;
60492;SDS011;46341;51.290;-2.474;2023-01-31T09:19:22;15.68;;;5.35;;
60492;SDS011;46341;51.290;-2.474;2023-01-31T09:21:49;34.30;;;12.93;;
60492;SDS011;46341;51.290;-2.474;2023-01-31T09:24:15;19.00;;;7.05;;
60492;SDS011;46341;51.290;-2.474;2023-01-31T09:26:41;15.40;;;5.68;;
60492;SDS011;46341;51.290;-2.474;2023-01-31T09:29:08;17.25;;;6.47;;
60492;SDS011;46341;51.290;-2.474;2023-01-31T09:31:34;10.10;;;6.80;;
60492;SDS011;46341;51.290;-2.474;2023-01-31T09:34:01;14.40;;;8.13;;
60492;SDS011;46341;51.290;-2.474;2023-01-31T09:36:27;7.47;;;4.78;;
60492;SDS011;46341;51.290;-2.474;2023-01-31T09:38:54;15.57;;;9.18;;
60492;SDS011;46341;51.290;-2.474;2023-01-31T09:44:14;13.95;;;7.70;;
60492;SDS011;46341;51.290;-2.474;2023-01-31T09:49:19;8.23;;;3.55;;
60492;SDS011;46341;51.290;-2.474;2023-01-31T09:51:48;9.70;;;3.30;;
60492;SDS011;46341;51.290;-2.474;2023-01-31T09:54:23;3.38;;;2.08;;
60492;SDS011;46341;51.290;-2.474;2023-01-31T09:56:53;4.35;;;2.00;;
60492;SDS011;46341;51.290;-2.474;2023-01-31T09:59:28;11.07;;;5.45;;
60492;SDS011;46341;51.290;-2.474;2023-01-31T10:05:11;6.68;;;2.53;;
60492;SDS011;46341;51.290;-2.474;2023-01-31T10:07:40;5.68;;;1.92;;
60492;SDS011;46341;51.290;-2.474;2023-01-31T10:13:20;4.45;;;2.10;;
60492;SDS011;46341;51.290;-2.474;2023-01-31T10:15:50;3.40;;;1.30;;
60492;SDS011;46341;51.290;-2.474;2023-01-31T10:21:01;3.72;;;1.40;;
60492;SDS011;46341;51.290;-2.474;2023-01-31T10:23:33;4.85;;;1.15;;
60492;SDS011;46341;51.290;-2.474;2023-01-31T10:26:05;5.32;;;1.25;;
60492;SDS011;46341;51.290;-2.474;2023-01-31T10:28:47;3.95;;;0.88;;
60492;SDS011;46341;51.290;-2.474;2023-01-31T10:31:33;3.55;;;1.23;;
60492;SDS011;46341;51.290;-2.474;2023-01-31T10:34:06;3.85;;;0.93;;
60492;SDS011;46341;51.290;-2.474;2023-01-31T10:36:45;4.72;;;1.40;;
60492;SDS011;46341;51.290;-2.474;2023-01-31T10:39:19;4.93;;;1.20;;
60492;SDS011;46341;51.290;-2.474;2023-01-31T10:47:14;7.68;;;3.03;;
60492;SDS011;46341;51.290;-2.474;2023-01-31T10:49:43;6.10;;;2.63;;
60492;SDS011;46341;51.290;-2.474;2023-01-31T10:57:41;3.92;;;1.80;;
60492;SDS011;46341;51.290;-2.474;2023-01-31T11:00:27;4.68;;;1.90;;
60492;SDS011;46341;51.290;-2.474;2023-01-31T11:02:55;5.60;;;2.20;;
60492;SDS011;46341;51.290;-2.474;2023-01-31T11:05:22;4.63;;;2.47;;
60492;SDS011;46341;51.290;-2.474;2023-01-31T11:07:49;9.07;;;3.72;;
60492;SDS011;46341;51.290;-2.474;2023-01-31T11:10:19;6.95;;;3.10;;
60492;SDS011;46341;51.290;-2.474;2023-01-31T11:13:08;7.72;;;3.20;;
60492;SDS011;46341;51.290;-2.474;2023-01-31T11:15:35;7.03;;;3.88;;
60492;SDS011;46341;51.290;-2.474;2023-01-31T11:18:03;10.45;;;5.32;;
60492;SDS011;46341;51.290;-2.474;2023-01-31T11:20:31;7.50;;;3.88;;
60492;SDS011;46341;51.290;-2.474;2023-01-31T11:22:59;7.20;;;3.65;;
60492;SDS011;46341;51.290;-2.474;2023-01-31T11:25:27;7.85;;;3.90;;
60492;SDS011;46341;51.290;-2.474;2023-01-31T11:27:58;8.70;;;3.97;;
60492;SDS011;46341;51.290;-2.474;2023-01-31T11:32:51;7.60;;;3.28;;
60492;SDS011;46341;51.290;-2.474;2023-01-31T11:38:27;7.50;;;3.65;;
60492;SDS011;46341;51.290;-2.474;2023-01-31T11:40:37;6.50;;;3.15;;
60492;SDS011;46341;51.290;-2.474;2023-01-31T11:43:05;7.32;;;2.67;;
60492;SDS011;46341;51.290;-2.474;2023-01-31T11:45:32;6.63;;;3.70;;
60492;SDS011;46341;51.290;-2.474;2023-01-31T11:52:54;7.20;;;4.78;;
60492;SDS011;46341;51.290;-2.474;2023-01-31T11:55:21;7.30;;;3.47;;
60492;SDS011;46341;51.290;-2.474;2023-01-31T11:57:52;8.52;;;5.10;;
60492;SDS011;46341;51.290;-2.474;2023-01-31T12:00:23;11.30;;;5.60;;
60492;SDS011;46341;51.290;-2.474;2023-01-31T12:02:57;7.05;;;4.40;;
60492;SDS011;46341;51.290;-2.474;2023-01-31T12:05:28;8.23;;;5.97;;
60492;SDS011;46341;51.290;-2.474;2023-01-31T12:07:56;9.90;;;4.88;;
60492;SDS011;46341;51.290;-2.474;2023-01-31T12:10:41;9.43;;;5.77;;
60492;SDS011;46341;51.290;-2.474;2023-01-31T12:13:12;9.27;;;6.00;;
60492;SDS011;46341;51.290;-2.474;2023-01-31T12:15:45;17.23;;;10.63;;
60492;SDS011;46341;51.290;-2.474;2023-01-31T12:20:40;9.93;;;4.90;;
60492;SDS011;46341;51.290;-2.474;2023-01-31T12:26:02;13.25;;;7.82;;
60492;SDS011;46341;51.290;-2.474;2023-01-31T12:28:32;13.85;;;6.53;;
60492;SDS011;46341;51.290;-2.474;2023-01-31T12:33:33;14.35;;;6.70;;
60492;SDS011;46341;51.290;-2.474;2023-01-31T12:41:30;6.93;;;2.05;;
60492;SDS011;46341;51.290;-2.474;2023-01-31T12:54:33;8.63;;;2.55;;
60492;SDS011;46341;51.290;-2.474;2023-01-31T12:59:35;5.93;;;2.90;;
60492;SDS011;46341;51.290;-2.474;2023-01-31T13:04:35;9.75;;;2.60;;
60492;SDS011;46341;51.290;-2.474;2023-01-31T13:07:09;8.88;;;2.85;;
60492;SDS011;46341;51.290;-2.474;2023-01-31T13:09:36;8.20;;;3.03;;
60492;SDS011;46341;51.290;-2.474;2023-01-31T13:14:31;8.13;;;2.42;;
60492;SDS011;46341;51.290;-2.474;2023-01-31T13:16:59;6.47;;;2.58;;
60492;SDS011;46341;51.290;-2.474;2023-01-31T13:22:04;10.05;;;3.03;;
60492;SDS011;46341;51.290;-2.474;2023-01-31T13:24:36;11.18;;;3.05;;
60492;SDS011;46341;51.290;-2.474;2023-01-31T13:29:55;9.52;;;3.03;;
60492;SDS011;46341;51.290;-2.474;2023-01-31T13:32:36;9.55;;;3.00;;
60492;SDS011;46341;51.290;-2.474;2023-01-31T13:37:43;9.10;;;2.50;;
60492;SDS011;46341;51.290;-2.474;2023-01-31T13:40:21;10.00;;;3.08;;
60492;SDS011;46341;51.290;-2.474;2023-01-31T13:42:49;11.93;;;3.30;;
60492;SDS011;46341;51.290;-2.474;2023-01-31T13:47:53;8.77;;;2.72;;
60492;SDS011;46341;51.290;-2.474;2023-01-31T13:50:37;10.00;;;2.78;;
60492;SDS011;46341;51.290;-2.474;2023-01-31T13:53:06;9.35;;;3.20;;
60492;SDS011;46341;51.290;-2.474;2023-01-31T13:55:38;9.90;;;2.88;;
60492;SDS011;46341;51.290;-2.474;2023-01-31T13:58:07;11.20;;;3.10;;
60492;SDS011;46341;51.290;-2.474;2023-01-31T14:03:06;10.37;;;3.13;;
60492;SDS011;46341;51.290;-2.474;2023-01-31T14:10:57;11.43;;;3.42;;
60492;SDS011;46341;51.290;-2.474;2023-01-31T14:15:56;12.25;;;2.70;;
60492;SDS011;46341;51.290;-2.474;2023-01-31T14:18:42;9.75;;;2.88;;
60492;SDS011;46341;51.290;-2.474;2023-01-31T14:23:57;12.60;;;3.45;;
60492;SDS011;46341;51.290;-2.474;2023-01-31T14:29:12;10.77;;;2.58;;
60492;SDS011;46341;51.290;-2.474;2023-01-31T14:31:40;12.13;;;3.03;;
60492;SDS011;46341;51.290;-2.474;2023-01-31T14:34:14;11.02;;;2.80;;
60492;SDS011;46341;51.290;-2.474;2023-01-31T14:36:48;14.52;;;3.15;;
60492;SDS011;46341;51.290;-2.474;2023-01-31T14:39:24;11.18;;;2.60;;
60492;SDS011;46341;51.290;-2.474;2023-01-31T14:44:41;10.48;;;2.63;;
60492;SDS011;46341;51.290;-2.474;2023-01-31T14:49:52;10.73;;;2.47;;
60492;SDS011;46341;51.290;-2.474;2023-01-31T14:55:06;13.15;;;3.45;;
60492;SDS011;46341;51.290;-2.474;2023-01-31T14:57:38;11.38;;;2.90;;
60492;SDS011;46341;51.290;-2.474;2023-01-31T15:02:52;10.07;;;2.78;;
60492;SDS011;46341;51.290;-2.474;2023-01-31T15:05:22;13.10;;;3.08;;
60492;SDS011;46341;51.290;-2.474;2023-01-31T15:13:52;10.95;;;2.92;;
60492;SDS011;46341;51.290;-2.474;2023-01-31T15:15:59;10.88;;;2.55;;
60492;SDS011;46341;51.290;-2.474;2023-01-31T15:18:26;13.80;;;3.55;;
60492;SDS011;46341;51.290;-2.474;2023-01-31T15:20:55;10.50;;;2.97;;
60492;SDS011;46341;51.290;-2.474;2023-01-31T15:23:23;9.98;;;3.63;;
60492;SDS011;46341;51.290;-2.474;2023-01-31T15:25:50;9.57;;;3.58;;
60492;SDS011;46341;51.290;-2.474;2023-01-31T15:28:18;12.50;;;3.58;;
60492;SDS011;46341;51.290;-2.474;2023-01-31T15:30:46;10.90;;;3.03;;
60492;SDS011;46341;51.290;-2.474;2023-01-31T15:36:00;8.77;;;2.78;;
60492;SDS011;46341;51.290;-2.474;2023-01-31T15:38:46;9.98;;;3.25;;
60492;SDS011;46341;51.290;-2.474;2023-01-31T15:43:41;10.98;;;2.92;;
60492;SDS011;46341;51.290;-2.474;2023-01-31T15:46:19;9.80;;;3.05;;
60492;SDS011;46341;51.290;-2.474;2023-01-31T15:48:47;12.77;;;3.25;;
60492;SDS011;46341;51.290;-2.474;2023-01-31T15:51:13;14.23;;;3.10;;
60492;SDS011;46341;51.290;-2.474;2023-01-31T15:53:40;13.82;;;3.20;;
60492;SDS011;46341;51.290;-2.474;2023-01-31T15:56:09;12.13;;;3.28;;
60492;SDS011;46341;51.290;-2.474;2023-01-31T15:58:38;14.00;;;3.45;;
60492;SDS011;46341;51.290;-2.474;2023-01-31T16:01:05;15.55;;;3.33;;
60492;SDS011;46341;51.290;-2.474;2023-01-31T16:03:33;13.88;;;3.53;;
60492;SDS011;46341;51.290;-2.474;2023-01-31T16:06:00;18.38;;;4.07;;
60492;SDS011;46341;51.290;-2.474;2023-01-31T16:11:05;16.00;;;4.22;;
60492;SDS011;46341;51.290;-2.474;2023-01-31T16:13:33;13.80;;;3.40;;
60492;SDS011;46341;51.290;-2.474;2023-01-31T16:16:01;15.13;;;3.40;;
60492;SDS011;46341;51.290;-2.474;2023-01-31T16:18:28;16.70;;;3.92;;
60492;SDS011;46341;51.290;-2.474;2023-01-31T16:20:54;14.10;;;3.90;;
60492;SDS011;46341;51.290;-2.474;2023-01-31T16:25:50;13.80;;;4.10;;
60492;SDS011;46341;51.290;-2.474;2023-01-31T16:28:18;18.58;;;4.32;;
60492;SDS011;46341;51.290;-2.474;2023-01-31T16:30:44;19.85;;;5.20;;
60492;SDS011;46341;51.290;-2.474;2023-01-31T16:33:16;19.52;;;4.45;;
60492;SDS011;46341;51.290;-2.474;2023-01-31T16:35:43;16.00;;;4.20;;
60492;SDS011;46341;51.290;-2.474;2023-01-31T16:38:17;16.90;;;4.25;;
60492;SDS011;46341;51.290;-2.474;2023-01-31T16:40:44;16.52;;;4.05;;
60492;SDS011;46341;51.290;-2.474;2023-01-31T16:43:19;17.17;;;3.88;;
60492;SDS011;46341;51.290;-2.474;2023-01-31T16:45:51;16.65;;;4.88;;
60492;SDS011;46341;51.290;-2.474;2023-01-31T16:48:19;19.38;;;4.95;;
60492;SDS011;46341;51.290;-2.474;2023-01-31T16:50:47;16.65;;;4.13;;
60492;SDS011;46341;51.290;-2.474;2023-01-31T16:56:14;15.55;;;4.43;;
60492;SDS011;46341;51.290;-2.474;2023-01-31T17:01:09;19.38;;;5.35;;
60492;SDS011;46341;51.290;-2.474;2023-01-31T17:03:36;19.17;;;5.43;;
60492;SDS011;46341;51.290;-2.474;2023-01-31T17:06:02;19.20;;;5.50;;
60492;SDS011;46341;51.290;-2.474;2023-01-31T17:08:30;23.65;;;6.40;;
60492;SDS011;46341;51.290;-2.474;2023-01-31T17:10:59;22.48;;;6.65;;
60492;SDS011;46341;51.290;-2.474;2023-01-31T17:13:25;22.98;;;6.55;;
60492;SDS011;46341;51.290;-2.474;2023-01-31T17:15:52;20.58;;;5.55;;
60492;SDS011;46341;51.290;-2.474;2023-01-31T17:18:18;19.17;;;5.95;;
60492;SDS011;46341;51.290;-2.474;2023-01-31T17:20:45;15.73;;;5.22;;
60492;SDS011;46341;51.290;-2.474;2023-01-31T17:23:14;18.75;;;5.93;;